Time;durP1;ratioP1;P1;durP2;ratioP2;P2;SDS_P1;SDS_P2;PMS_P1;PMS_P2;Temp;Humidity;BMP_temperature;BMP_pressure;BME280_temperature;BME280_humidity;BME280_pressure;Samples;Min_cycle;Max_cycle;Signal;HPM_P1;HPM_P2
2022/12/31 00:02:00;;;;;;;8.23;5.22;;;12.00;99.90;;;;;;4821090;29;20046;-64
2022/12/31 00:04:25;;;;;;;10.73;5.82;;;11.90;99.90;;;;;;4822306;29;20375;-63
2022/12/31 00:06:51;;;;;;;10.40;5.30;;;11.80;99.90;;;;;;4826525;29;20045;-64
2022/12/31 00:09:16;;;;;;;9.88;5.55;;;11.80;99.90;;;;;;4825538;29;20042;-64
2022/12/31 00:11:42;;;;;;;11.52;5.28;;;11.70;99.90;;;;;;4825639;29;20043;-64
2022/12/31 00:14:08;;;;;;;11.85;4.90;;;11.80;99.90;;;;;;4827181;29;20038;-63
2022/12/31 00:16:37;;;;;;;9.38;4.78;;;11.80;99.90;;;;;;4826415;29;20456;-64
2022/12/31 00:19:04;;;;;;;11.43;5.22;;;11.90;99.90;;;;;;4825535;29;20046;-61
2022/12/31 00:21:31;;;;;;;10.88;4.97;;;11.80;99.90;;;;;;4826380;29;20054;-62
2022/12/31 00:23:57;;;;;;;8.77;4.70;;;11.80;99.90;;;;;;4809168;29;20129;-62
2022/12/31 00:26:25;;;;;;;9.30;4.68;;;11.80;99.90;;;;;;4826338;29;20121;-62
2022/12/31 00:28:53;;;;;;;9.25;4.68;;;11.80;99.90;;;;;;4825624;29;20540;-62
2022/12/31 00:31:24;;;;;;;9.88;5.20;;;11.80;99.90;;;;;;4825541;29;20053;-63
2022/12/31 00:33:50;;;;;;;7.45;4.20;;;12.00;99.90;;;;;;4825197;29;20115;-63
2022/12/31 00:36:37;;;;;;;9.38;4.80;;;12.00;99.90;;;;;;4825750;29;20038;-62
2022/12/31 00:39:05;;;;;;;7.10;4.20;;;11.90;99.90;;;;;;4823129;29;20073;-63
2022/12/31 00:41:31;;;;;;;7.47;4.20;;;11.90;99.90;;;;;;4825215;29;20054;-65
2022/12/31 00:43:57;;;;;;;9.48;3.95;;;11.80;99.90;;;;;;4824939;29;20102;-61
2022/12/31 00:46:23;;;;;;;8.15;4.00;;;11.80;99.90;;;;;;4794501;29;20086;-64
2022/12/31 00:48:49;;;;;;;8.02;4.22;;;11.90;99.90;;;;;;4808779;29;20464;-63
2022/12/31 00:51:18;;;;;;;9.13;4.60;;;11.90;99.90;;;;;;4823360;29;20042;-64
2022/12/31 00:53:44;;;;;;;5.85;3.42;;;12.00;99.90;;;;;;4824606;29;20456;-63
2022/12/31 00:56:20;;;;;;;8.65;3.70;;;11.90;99.90;;;;;;4825430;29;20464;-64
2022/12/31 00:58:47;;;;;;;5.18;3.40;;;11.90;99.90;;;;;;4823405;29;20042;-62
2022/12/31 01:01:17;;;;;;;5.60;3.28;;;11.80;99.90;;;;;;4825280;29;20046;-63
2022/12/31 01:03:43;;;;;;;6.50;3.70;;;11.80;99.90;;;;;;4822835;29;20038;-63
2022/12/31 01:06:09;;;;;;;6.38;3.25;;;11.80;99.90;;;;;;4825315;29;20035;-63
2022/12/31 01:08:35;;;;;;;5.00;3.13;;;11.90;99.90;;;;;;4824815;29;20110;-63
2022/12/31 01:13:51;;;;;;;6.15;3.00;;;11.80;99.90;;;;;;4822683;29;20471;-62
2022/12/31 01:16:24;;;;;;;5.20;2.90;;;11.80;99.90;;;;;;4824998;29;20042;-62
2022/12/31 01:18:51;;;;;;;8.25;3.17;;;11.90;99.90;;;;;;4823434;29;20050;-62
2022/12/31 01:21:17;;;;;;;5.80;2.75;;;11.90;99.90;;;;;;4824037;29;20083;-63
2022/12/31 01:23:43;;;;;;;5.15;2.53;;;11.90;99.90;;;;;;4807699;29;20046;-63
2022/12/31 01:26:11;;;;;;;4.95;2.50;;;11.90;99.90;;;;;;4824922;29;20052;-63
2022/12/31 01:28:37;;;;;;;6.68;2.72;;;11.80;99.90;;;;;;4824601;29;20501;-64
2022/12/31 01:31:07;;;;;;;4.55;2.67;;;11.90;99.90;;;;;;4824431;29;20046;-62
2022/12/31 01:33:33;;;;;;;4.97;2.60;;;11.70;99.90;;;;;;4792183;29;20042;-62
2022/12/31 01:36:04;;;;;;;4.03;2.38;;;11.70;99.90;;;;;;4821509;29;20061;-64
2022/12/31 01:38:29;;;;;;;4.93;2.38;;;11.70;99.90;;;;;;4824129;29;20442;-64
2022/12/31 01:40:55;;;;;;;5.32;2.17;;;11.70;99.90;;;;;;4824273;29;20126;-64
2022/12/31 01:43:21;;;;;;;3.70;2.20;;;11.80;99.90;;;;;;4807515;29;20047;-63
2022/12/31 01:45:53;;;;;;;4.18;1.83;;;11.70;99.90;;;;;;4805172;29;20046;-64
2022/12/31 01:48:25;;;;;;;5.07;2.10;;;11.70;99.90;;;;;;4810566;29;20149;-63
2022/12/31 01:50:52;;;;;;;3.28;1.70;;;11.70;99.90;;;;;;4823981;29;20368;-63
2022/12/31 01:53:18;;;;;;;4.47;1.90;;;11.60;99.90;;;;;;4807470;29;20046;-63
2022/12/31 01:55:55;;;;;;;3.80;1.67;;;11.70;99.90;;;;;;4823938;29;20065;-62
2022/12/31 01:58:28;;;;;;;5.07;1.60;;;11.80;99.90;;;;;;4805633;29;20175;-62
2022/12/31 02:00:57;;;;;;;3.22;1.10;;;11.60;99.90;;;;;;4824052;29;20054;-62
2022/12/31 02:03:25;;;;;;;2.95;1.20;;;11.70;99.90;;;;;;4823458;29;20066;-62
2022/12/31 02:06:07;;;;;;;4.28;1.00;;;11.60;99.90;;;;;;4823912;29;20050;-63
2022/12/31 02:08:35;;;;;;;3.35;0.80;;;11.60;99.90;;;;;;4823510;29;20070;-61
2022/12/31 02:11:00;;;;;;;2.55;0.90;;;11.60;99.90;;;;;;4821771;29;20050;-62
2022/12/31 02:13:26;;;;;;;3.22;1.10;;;11.50;99.90;;;;;;4823575;29;20109;-61
2022/12/31 02:15:57;;;;;;;2.47;1.00;;;11.40;99.90;;;;;;4824052;29;20061;-63
2022/12/31 02:18:42;;;;;;;3.20;0.90;;;11.50;99.90;;;;;;4825541;29;20045;-63
2022/12/31 02:21:39;;;;;;;4.30;0.98;;;11.50;99.90;;;;;;4822008;29;20062;-63
2022/12/31 02:24:30;;;;;;;2.25;0.93;;;11.60;99.90;;;;;;4806253;29;20150;-62
2022/12/31 02:27:18;;;;;;;3.67;1.00;;;11.40;99.90;;;;;;4825616;29;20053;-60
2022/12/31 02:29:53;;;;;;;4.95;1.10;;;11.40;99.90;;;;;;4821389;29;20397;-61
2022/12/31 02:32:33;;;;;;;3.03;0.93;;;11.50;99.90;;;;;;4820826;29;20042;-61
2022/12/31 02:35:07;;;;;;;3.65;0.90;;;11.50;99.90;;;;;;4821806;29;20042;-62
2022/12/31 02:37:35;;;;;;;2.20;1.08;;;11.40;99.90;;;;;;4824181;29;20058;-60
2022/12/31 02:40:01;;;;;;;5.03;1.10;;;11.50;99.90;;;;;;4814162;29;20111;-61
2022/12/31 02:42:27;;;;;;;3.10;1.10;;;11.50;99.90;;;;;;4790746;29;20458;-63
2022/12/31 02:44:52;;;;;;;3.83;1.40;;;11.40;99.90;;;;;;4817152;29;20472;-63
2022/12/31 02:47:41;;;;;;;4.07;1.33;;;11.50;99.90;;;;;;4814652;29;20126;-63
2022/12/31 02:50:37;;;;;;;4.18;1.25;;;11.50;99.90;;;;;;4808287;29;20038;-61
2022/12/31 02:53:23;;;;;;;4.55;1.52;;;11.30;99.90;;;;;;4816849;29;20139;-61
2022/12/31 02:56:08;;;;;;;4.22;1.65;;;11.40;99.90;;;;;;4822105;29;20135;-62
2022/12/31 03:04:30;;;;;;;4.82;1.90;;;11.30;99.90;;;;;;4821004;29;20414;-63
2022/12/31 03:06:58;;;;;;;5.78;2.08;;;11.40;99.90;;;;;;4823294;29;20103;-63
2022/12/31 03:09:24;;;;;;;3.40;2.10;;;11.40;99.90;;;;;;4806930;29;20053;-63
2022/12/31 03:14:34;;;;;;;4.03;2.05;;;11.40;99.90;;;;;;4823826;29;20444;-63
2022/12/31 03:16:59;;;;;;;8.40;2.88;;;11.30;99.90;;;;;;4826687;29;20038;-63
2022/12/31 03:22:26;;;;;;;6.43;2.80;;;11.40;99.90;;;;;;4826070;29;20070;-65
2022/12/31 03:27:48;;;;;;;6.70;3.15;;;11.40;99.90;;;;;;4826905;29;20543;-63
2022/12/31 03:30:16;;;;;;;6.30;3.05;;;11.30;99.90;;;;;;4826464;29;20133;-63
2022/12/31 03:32:43;;;;;;;4.30;2.72;;;11.40;99.90;;;;;;4826148;29;20034;-63
2022/12/31 03:35:10;;;;;;;5.35;2.88;;;11.40;99.90;;;;;;4826682;29;20054;-61
2022/12/31 03:37:38;;;;;;;6.10;3.22;;;11.40;99.90;;;;;;4827006;29;20129;-62
2022/12/31 03:40:04;;;;;;;7.78;3.15;;;11.40;99.90;;;;;;4826439;29;20042;-62
2022/12/31 03:42:30;;;;;;;4.72;2.80;;;11.50;99.90;;;;;;4825535;29;20138;-61
2022/12/31 03:44:55;;;;;;;5.13;2.97;;;11.50;99.90;;;;;;4826305;29;20468;-63
2022/12/31 03:47:21;;;;;;;5.55;3.10;;;11.50;99.90;;;;;;4810783;29;20498;-62
2022/12/31 03:49:46;;;;;;;7.00;2.90;;;11.30;99.90;;;;;;4826338;29;20528;-64
2022/12/31 03:52:12;;;;;;;5.35;2.47;;;11.50;99.90;;;;;;4825293;29;20460;-64
2022/12/31 03:54:38;;;;;;;5.25;2.75;;;11.50;99.90;;;;;;4826100;29;20117;-63
2022/12/31 03:57:03;;;;;;;7.90;2.88;;;11.50;99.90;;;;;;4811364;29;20047;-63
2022/12/31 03:59:29;;;;;;;5.82;2.50;;;11.40;99.90;;;;;;4809780;29;20046;-64
2022/12/31 04:01:54;;;;;;;5.85;2.40;;;11.50;99.90;;;;;;4809591;29;20085;-64
2022/12/31 04:04:20;;;;;;;4.72;2.30;;;11.50;99.90;;;;;;4825294;29;20046;-62
2022/12/31 04:06:45;;;;;;;7.40;2.42;;;11.50;99.90;;;;;;4826826;29;20050;-63
2022/12/31 04:09:11;;;;;;;7.55;2.45;;;11.30;99.90;;;;;;4809578;29;20065;-62
2022/12/31 04:11:36;;;;;;;6.68;2.42;;;11.40;99.90;;;;;;4825476;29;20141;-63
2022/12/31 04:14:02;;;;;;;5.05;2.13;;;11.30;99.90;;;;;;4825141;29;20038;-63
2022/12/31 04:16:27;;;;;;;5.95;2.38;;;11.30;99.90;;;;;;4826945;29;20358;-63
2022/12/31 04:18:53;;;;;;;5.90;2.45;;;11.30;99.90;;;;;;4825623;29;20053;-63
2022/12/31 04:21:19;;;;;;;4.18;1.92;;;11.40;99.90;;;;;;4825030;29;20095;-63
2022/12/31 04:23:44;;;;;;;6.90;2.30;;;11.40;99.90;;;;;;4825074;29;20107;-64
2022/12/31 04:26:10;;;;;;;5.20;2.33;;;11.30;99.90;;;;;;4826355;29;20050;-63
2022/12/31 04:28:35;;;;;;;5.72;2.30;;;11.40;99.90;;;;;;4825545;29;20062;-63
2022/12/31 04:31:03;;;;;;;9.48;3.15;;;11.40;99.90;;;;;;4809204;29;20054;-63
2022/12/31 04:33:28;;;;;;;6.47;2.50;;;11.50;99.90;;;;;;4824887;29;20069;-64
2022/12/31 04:36:00;;;;;;;6.55;2.78;;;11.30;99.90;;;;;;4825223;29;20357;-61
2022/12/31 04:38:28;;;;;;;7.15;2.90;;;11.40;99.90;;;;;;4809999;29;20052;-60
2022/12/31 04:43:38;;;;;;;6.45;2.83;;;11.40;99.90;;;;;;4824921;29;20058;-61
2022/12/31 04:46:03;;;;;;;6.13;3.03;;;11.30;99.90;;;;;;4825265;29;20039;-61
2022/12/31 04:48:29;;;;;;;6.72;2.72;;;11.30;99.90;;;;;;4826431;29;20053;-58
2022/12/31 04:50:55;;;;;;;5.35;2.30;;;11.40;99.90;;;;;;4824773;29;20075;-60
2022/12/31 04:53:20;;;;;;;6.88;3.00;;;11.30;99.90;;;;;;4824813;29;20099;-59
2022/12/31 04:55:46;;;;;;;8.23;2.50;;;11.20;99.90;;;;;;4808998;29;20121;-63
2022/12/31 04:58:11;;;;;;;6.57;2.72;;;11.40;99.90;;;;;;4826159;29;20046;-63
2022/12/31 05:00:37;;;;;;;3.72;2.38;;;11.40;99.90;;;;;;4824999;29;20065;-63
2022/12/31 05:03:02;;;;;;;8.15;2.75;;;11.20;99.90;;;;;;4824399;29;20440;-62
2022/12/31 05:05:28;;;;;;;5.45;2.22;;;11.30;99.90;;;;;;4824661;29;20046;-62
2022/12/31 05:07:54;;;;;;;5.57;2.60;;;11.30;99.90;;;;;;4825723;29;20119;-63
2022/12/31 05:10:19;;;;;;;5.97;2.60;;;11.20;99.90;;;;;;4824729;29;20553;-63
2022/12/31 05:12:45;;;;;;;4.57;2.42;;;11.30;99.90;;;;;;4824100;29;20460;-63
2022/12/31 05:15:10;;;;;;;5.43;2.50;;;11.20;99.90;;;;;;4824696;29;20099;-65
2022/12/31 05:17:36;;;;;;;4.63;2.33;;;11.20;99.90;;;;;;4825815;29;20486;-62
2022/12/31 05:20:02;;;;;;;4.40;2.13;;;11.30;99.90;;;;;;4824180;29;20058;-61
2022/12/31 05:22:28;;;;;;;4.80;2.40;;;11.30;99.90;;;;;;4824195;29;20055;-61
2022/12/31 05:24:54;;;;;;;5.07;2.30;;;11.20;99.90;;;;;;4824380;29;20487;-62
2022/12/31 05:27:20;;;;;;;4.18;2.20;;;11.20;99.90;;;;;;4823079;29;20551;-62
2022/12/31 05:29:45;;;;;;;5.82;2.20;;;11.20;99.90;;;;;;4824449;29;20046;-60
2022/12/31 05:32:11;;;;;;;3.58;1.90;;;11.20;99.90;;;;;;4824064;29;20046;-61
2022/12/31 07:24:43;;;;;;;4.50;3.60;;;11.60;99.90;;;;;;4840080;27;8454403;-63
2022/12/31 07:27:34;;;;;;;3.95;3.10;;;11.20;99.90;;;;;;5133827;28;20413;-62
2022/12/31 07:30:20;;;;;;;3.80;3.00;;;11.10;99.90;;;;;;5083018;28;20480;-62
2022/12/31 07:33:08;;;;;;;4.70;3.15;;;11.10;99.90;;;;;;5129197;28;20416;-64
2022/12/31 07:35:51;;;;;;;4.10;3.33;;;11.20;99.90;;;;;;5108928;28;20407;-63
2022/12/31 07:38:17;;;;;;;4.53;3.20;;;11.20;99.90;;;;;;5109401;28;20126;-63
2022/12/31 07:41:19;;;;;;;5.22;3.33;;;11.20;99.90;;;;;;5127525;28;20119;-62
2022/12/31 07:44:05;;;;;;;4.18;3.17;;;11.30;99.90;;;;;;5125185;28;20058;-62
2022/12/31 07:47:02;;;;;;;4.90;3.33;;;11.20;99.90;;;;;;5123509;28;20116;-62
2022/12/31 07:49:29;;;;;;;4.85;3.50;;;11.20;99.90;;;;;;5129322;28;20058;-62
2022/12/31 07:51:55;;;;;;;4.53;3.60;;;11.30;99.90;;;;;;5110847;28;21920;-62
2022/12/31 07:54:21;;;;;;;4.38;3.50;;;11.40;99.90;;;;;;5130293;28;20051;-61
2022/12/31 07:56:51;;;;;;;4.80;3.88;;;11.50;99.90;;;;;;5133951;28;20036;-62
2022/12/31 07:59:55;;;;;;;3.88;3.28;;;11.30;99.90;;;;;;5113784;28;20079;-62
2022/12/31 08:03:02;;;;;;;4.72;3.80;;;11.40;99.90;;;;;;5113536;28;20079;-62
2022/12/31 08:05:45;;;;;;;4.72;3.30;;;11.40;99.90;;;;;;5137382;28;20035;-62
2022/12/31 08:08:38;;;;;;;4.20;3.08;;;11.50;99.90;;;;;;5137649;28;20050;-61
2022/12/31 08:11:22;;;;;;;4.88;3.22;;;11.50;99.90;;;;;;5137669;28;20032;-62
2022/12/31 08:13:49;;;;;;;5.45;3.40;;;11.60;99.90;;;;;;5123202;28;20043;-61
2022/12/31 08:16:15;;;;;;;3.83;2.92;;;11.70;99.90;;;;;;5120123;28;20074;-63
2022/12/31 08:18:41;;;;;;;3.70;3.08;;;11.80;99.90;;;;;;5123261;28;20024;-61
2022/12/31 08:21:38;;;;;;;4.75;3.20;;;11.80;99.90;;;;;;5123096;28;20069;-62
2022/12/31 08:24:34;;;;;;;4.47;3.33;;;11.90;99.90;;;;;;5122375;28;20099;-62
2022/12/31 08:27:11;;;;;;;4.20;3.25;;;12.00;99.90;;;;;;5083916;28;20233;-62
2022/12/31 08:30:04;;;;;;;5.25;3.92;;;12.00;99.90;;;;;;5101537;28;20040;-62
2022/12/31 08:32:47;;;;;;;4.97;3.40;;;12.30;99.90;;;;;;5083935;28;20082;-62
2022/12/31 08:35:55;;;;;;;3.97;3.35;;;12.20;99.90;;;;;;5096772;28;20036;-63
2022/12/31 08:38:42;;;;;;;4.00;3.50;;;12.30;99.90;;;;;;5082427;28;20035;-64
2022/12/31 08:41:15;;;;;;;4.60;3.65;;;12.30;99.90;;;;;;5096283;28;20158;-61
2022/12/31 08:43:51;;;;;;;4.10;3.70;;;12.30;99.90;;;;;;5094648;28;20036;-61
2022/12/31 08:47:09;;;;;;;4.70;3.00;;;12.40;99.90;;;;;;5103375;28;20031;-60
2022/12/31 08:49:35;;;;;;;5.15;3.03;;;12.30;99.90;;;;;;5046152;28;20545;-62
2022/12/31 08:52:01;;;;;;;4.13;2.70;;;12.50;99.90;;;;;;5072004;28;20052;-63
2022/12/31 08:54:28;;;;;;;3.65;2.30;;;12.40;99.90;;;;;;5075040;28;20044;-63
2022/12/31 08:57:02;;;;;;;2.17;1.92;;;12.60;99.90;;;;;;5079513;28;20384;-59
2022/12/31 08:59:50;;;;;;;;;;;12.60;99.90;;;;;;5093052;28;20355;-62
2022/12/31 09:02:53;;;;;;;2.45;1.45;;;12.70;99.90;;;;;;5095040;28;19923;-59
2022/12/31 09:05:29;;;;;;;4.53;1.90;;;12.70;99.90;;;;;;5087466;28;20108;-62
2022/12/31 09:08:20;;;;;;;2.53;1.48;;;12.70;99.90;;;;;;5092402;28;20411;-62
2022/12/31 09:10:57;;;;;;;1.98;1.40;;;12.70;99.90;;;;;;5092787;28;20514;-60
2022/12/31 09:13:46;;;;;;;1.88;1.13;;;12.70;99.90;;;;;;5088141;28;20036;-61
2022/12/31 09:16:38;;;;;;;2.63;1.10;;;12.90;99.90;;;;;;5092064;28;20419;-60
2022/12/31 09:19:04;;;;;;;1.58;1.05;;;12.90;99.90;;;;;;5090006;28;20447;-61
2022/12/31 09:21:31;;;;;;;1.40;1.10;;;12.80;99.90;;;;;;5098273;28;20036;-61
2022/12/31 09:23:57;;;;;;;2.42;1.10;;;12.80;99.90;;;;;;5089567;28;20485;-61
2022/12/31 09:26:58;;;;;;;1.35;1.00;;;12.80;99.90;;;;;;5070233;28;20036;-59
2022/12/31 09:29:42;;;;;;;2.63;0.77;;;13.00;99.90;;;;;;5089485;28;20039;-60
2022/12/31 09:32:34;;;;;;;1.55;0.90;;;12.90;99.90;;;;;;5088678;28;20055;-61
2022/12/31 09:35:30;;;;;;;2.17;1.00;;;12.90;99.90;;;;;;5073527;28;20079;-59
2022/12/31 09:38:12;;;;;;;2.47;1.00;;;13.00;99.90;;;;;;5083819;28;20069;-57
2022/12/31 09:41:09;;;;;;;3.28;1.00;;;13.20;99.90;;;;;;5090308;28;20036;-62
2022/12/31 09:44:18;;;;;;;1.65;1.10;;;13.30;99.90;;;;;;5090583;28;20154;-60
2022/12/31 09:47:11;;;;;;;2.20;1.00;;;13.20;99.90;;;;;;5088037;28;20369;-61
2022/12/31 09:50:14;;;;;;;3.13;1.20;;;13.30;99.90;;;;;;5087821;28;20069;-61
2022/12/31 09:53:12;;;;;;;2.55;1.10;;;13.30;99.90;;;;;;5086676;28;20040;-62
2022/12/31 09:55:47;;;;;;;3.20;1.52;;;13.30;99.90;;;;;;5096365;28;20035;-61
2022/12/31 09:58:40;;;;;;;2.85;1.30;;;13.40;99.90;;;;;;5091568;28;20063;-62
2022/12/31 10:01:05;;;;;;;3.78;1.75;;;13.40;99.90;;;;;;5089508;28;20360;-59
2022/12/31 10:03:58;;;;;;;1.90;1.23;;;13.50;99.90;;;;;;5092586;28;20452;-60
2022/12/31 10:06:42;;;;;;;2.05;1.10;;;13.50;99.90;;;;;;5089796;28;20039;-62
2022/12/31 10:09:37;;;;;;;3.40;1.30;;;13.70;99.90;;;;;;5090487;28;20105;-61
2022/12/31 10:12:35;;;;;;;3.08;1.77;;;13.70;99.90;;;;;;5050379;28;20414;-58
2022/12/31 10:15:32;;;;;;;3.47;1.38;;;13.70;99.90;;;;;;5086984;28;20048;-60
2022/12/31 10:18:35;;;;;;;3.50;1.35;;;13.60;99.90;;;;;;5089287;28;20068;-56
2022/12/31 10:21:05;;;;;;;4.43;1.80;;;13.80;99.90;;;;;;5082736;28;20044;-61
2022/12/31 10:24:01;;;;;;;3.65;1.77;;;13.80;99.90;;;;;;5088006;28;20048;-61
2022/12/31 10:26:53;;;;;;;5.35;2.00;;;13.80;99.90;;;;;;5089359;28;20135;-61
2022/12/31 10:29:55;;;;;;;4.25;2.00;;;13.70;99.90;;;;;;5091132;28;20124;-61
2022/12/31 10:32:45;;;;;;;5.95;2.35;;;13.80;99.90;;;;;;5087893;28;20040;-60
2022/12/31 10:35:22;;;;;;;5.35;2.13;;;13.90;99.90;;;;;;5106942;28;20062;-61
2022/12/31 10:38:21;;;;;;;8.32;2.17;;;13.90;99.90;;;;;;5092545;28;20063;-60
2022/12/31 10:41:23;;;;;;;4.75;2.10;;;13.90;99.90;;;;;;5092711;28;20051;-61
2022/12/31 10:44:22;;;;;;;5.97;2.30;;;14.00;99.90;;;;;;5087187;28;20352;-58
2022/12/31 10:46:57;;;;;;;7.28;2.55;;;13.90;99.90;;;;;;5085822;28;20044;-58
2022/12/31 10:49:41;;;;;;;6.22;2.88;;;13.70;99.90;;;;;;5085316;28;20141;-58
2022/12/31 10:52:18;;;;;;;4.03;1.90;;;13.70;99.90;;;;;;5086404;28;20036;-60
2022/12/31 10:55:07;;;;;;;4.97;2.58;;;13.60;99.90;;;;;;5064983;28;20104;-59
2022/12/31 10:58:05;;;;;;;6.50;2.45;;;13.70;99.90;;;;;;5086025;28;20023;-61
2022/12/31 11:00:52;;;;;;;4.40;1.60;;;13.70;99.90;;;;;;5054114;28;20047;-59
2022/12/31 11:03:37;;;;;;;3.03;1.52;;;13.70;99.90;;;;;;5088348;28;20385;-60
2022/12/31 11:06:32;;;;;;;5.45;1.98;;;13.60;99.90;;;;;;5090319;28;20050;-60
2022/12/31 11:09:32;;;;;;;6.35;1.77;;;13.60;99.90;;;;;;5068201;28;20115;-61
2022/12/31 11:12:23;;;;;;;3.50;1.55;;;13.80;99.90;;;;;;5068187;28;20091;-63
2022/12/31 11:15:19;;;;;;;5.68;2.60;;;13.70;99.90;;;;;;5088866;28;20033;-62
2022/12/31 11:18:12;;;;;;;6.32;2.80;;;13.80;99.90;;;;;;5087658;28;20042;-63
2022/12/31 11:21:07;;;;;;;5.65;2.55;;;13.80;99.90;;;;;;5075662;28;20044;-62
2022/12/31 11:24:17;;;;;;;4.65;2.30;;;13.80;99.90;;;;;;5088583;28;20181;-63
2022/12/31 11:27:26;;;;;;;4.10;2.63;;;13.90;99.90;;;;;;5088065;28;20040;-61
2022/12/31 11:30:34;;;;;;;5.75;3.00;;;14.00;99.90;;;;;;5036965;28;20047;-63
2022/12/31 11:33:05;;;;;;;5.18;2.90;;;14.00;99.90;;;;;;5077508;28;20519;-64
2022/12/31 11:35:59;;;;;;;5.75;2.83;;;14.10;99.90;;;;;;5091051;28;20036;-63
2022/12/31 11:38:35;;;;;;;5.50;2.70;;;14.20;99.90;;;;;;5087665;28;20027;-64
2022/12/31 11:41:15;;;;;;;3.50;2.20;;;14.30;99.90;;;;;;5065905;28;20282;-63
2022/12/31 11:43:54;;;;;;;5.82;2.40;;;14.20;99.90;;;;;;5068974;28;20040;-64
2022/12/31 11:46:33;;;;;;;6.78;2.80;;;14.50;99.90;;;;;;5088169;28;20035;-64
2022/12/31 11:49:25;;;;;;;4.93;2.85;;;14.50;99.90;;;;;;5078493;28;20452;-65
2022/12/31 11:52:09;;;;;;;4.20;2.75;;;14.50;99.90;;;;;;5068218;28;20039;-64
2022/12/31 11:55:00;;;;;;;4.30;2.40;;;14.60;99.90;;;;;;5081178;28;20036;-64
2022/12/31 11:57:33;;;;;;;4.95;2.20;;;14.70;99.90;;;;;;5084310;28;20048;-63
2022/12/31 12:00:05;;;;;;;4.32;1.75;;;14.70;99.90;;;;;;5088372;28;20032;-62
2022/12/31 12:02:37;;;;;;;3.65;1.75;;;14.80;99.90;;;;;;5086088;28;20032;-64
2022/12/31 12:05:06;;;;;;;4.40;1.48;;;14.80;99.90;;;;;;5088293;28;20087;-62
2022/12/31 12:07:31;;;;;;;6.07;1.40;;;14.80;99.90;;;;;;5086460;28;20036;-64
2022/12/31 12:10:02;;;;;;;3.45;1.20;;;14.80;99.90;;;;;;5090262;28;20115;-64
2022/12/31 12:12:41;;;;;;;4.45;1.30;;;14.80;99.90;;;;;;5096548;28;20055;-64
2022/12/31 12:15:19;;;;;;;4.95;1.52;;;14.70;99.90;;;;;;5096347;28;20054;-64
2022/12/31 12:17:50;;;;;;;5.57;1.60;;;14.70;99.90;;;;;;5089431;28;20099;-64
2022/12/31 12:20:22;;;;;;;2.90;1.13;;;14.60;99.90;;;;;;5075629;28;20029;-65
2022/12/31 12:22:53;;;;;;;2.90;1.20;;;14.70;99.90;;;;;;5089549;28;20064;-63
2022/12/31 12:25:39;;;;;;;2.63;1.10;;;14.70;99.90;;;;;;5100659;28;20109;-64
2022/12/31 12:28:17;;;;;;;3.75;1.30;;;14.70;99.90;;;;;;5089127;28;20050;-64
2022/12/31 12:30:43;;;;;;;2.58;1.23;;;14.70;99.90;;;;;;5093508;28;20046;-63
2022/12/31 12:33:17;;;;;;;4.13;1.42;;;14.60;99.90;;;;;;5089349;28;20067;-64
2022/12/31 12:35:43;;;;;;;4.30;1.73;;;14.60;99.90;;;;;;5080909;28;20027;-64
2022/12/31 12:38:17;;;;;;;2.80;1.63;;;14.50;99.90;;;;;;5090443;28;20036;-64
2022/12/31 12:40:58;;;;;;;3.30;1.60;;;14.50;99.90;;;;;;5087052;28;20032;-64
2022/12/31 12:43:26;;;;;;;2.63;1.67;;;14.40;99.90;;;;;;5089089;28;20513;-64
2022/12/31 12:45:57;;;;;;;3.15;1.60;;;14.30;99.90;;;;;;5089095;28;20040;-65
2022/12/31 12:48:39;;;;;;;5.88;1.90;;;14.30;99.90;;;;;;5094261;28;20090;-63
2022/12/31 12:51:24;;;;;;;4.88;1.70;;;14.30;99.90;;;;;;5087059;28;20112;-63
2022/12/31 12:54:11;;;;;;;2.13;1.20;;;14.20;99.90;;;;;;5089740;28;20051;-63
2022/12/31 12:56:59;;;;;;;5.70;1.50;;;14.20;99.90;;;;;;5090845;28;20483;-62
2022/12/31 12:59:41;;;;;;;3.97;1.20;;;14.30;99.90;;;;;;5092988;28;20046;-62
2022/12/31 13:02:45;;;;;;;2.83;1.55;;;14.00;99.90;;;;;;5090192;28;20054;-64
2022/12/31 13:05:20;;;;;;;3.65;1.30;;;14.00;99.90;;;;;;5091827;28;20036;-63
2022/12/31 13:08:09;;;;;;;3.42;1.30;;;13.90;99.90;;;;;;5090304;28;20067;-63
2022/12/31 13:10:54;;;;;;;3.92;1.05;;;14.00;99.90;;;;;;5070199;28;20114;-62
2022/12/31 13:13:58;;;;;;;3.78;1.48;;;13.80;99.90;;;;;;5085933;28;20055;-62
2022/12/31 13:16:44;;;;;;;4.75;1.25;;;13.80;99.90;;;;;;5090491;28;20078;-61
2022/12/31 13:19:38;;;;;;;3.70;1.48;;;13.80;99.90;;;;;;5089583;28;20086;-62
2022/12/31 13:22:15;;;;;;;3.90;1.40;;;13.70;99.90;;;;;;5093217;28;20094;-64
2022/12/31 13:25:12;;;;;;;3.33;1.38;;;13.70;99.90;;;;;;5091997;28;20063;-63
2022/12/31 13:27:45;;;;;;;4.60;1.38;;;13.70;99.90;;;;;;5085953;28;20062;-62
2022/12/31 13:30:30;;;;;;;3.17;2.00;;;13.60;99.90;;;;;;5090512;28;20023;-63
2022/12/31 13:33:02;;;;;;;9.57;5.43;;;13.40;99.90;;;;;;5084233;28;20059;-62
2022/12/31 13:35:49;;;;;;;10.07;5.28;;;13.60;99.90;;;;;;5092231;28;20040;-62
2022/12/31 13:38:37;;;;;;;7.75;4.15;;;13.50;99.90;;;;;;5086821;28;20402;-61
2022/12/31 13:41:35;;;;;;;5.63;2.83;;;13.40;99.90;;;;;;5087719;28;20088;-61
2022/12/31 13:44:15;;;;;;;11.05;2.40;;;13.40;99.90;;;;;;5076416;28;20083;-62
2022/12/31 13:47:00;;;;;;;3.53;1.77;;;13.40;99.90;;;;;;5085788;28;20040;-64
2022/12/31 13:49:31;;;;;;;2.78;1.23;;;13.40;99.90;;;;;;5086672;28;20137;-62
2022/12/31 13:52:20;;;;;;;2.35;0.90;;;13.50;99.90;;;;;;5091890;28;20481;-62
2022/12/31 13:55:12;;;;;;;1.35;1.00;;;13.50;99.90;;;;;;5086602;28;20047;-64
2022/12/31 13:57:38;;;;;;;1.83;0.93;;;13.60;99.90;;;;;;5086868;28;20069;-63
2022/12/31 14:00:12;;;;;;;3.05;1.10;;;13.50;99.90;;;;;;5072336;28;20126;-63
2022/12/31 14:02:53;;;;;;;2.08;1.13;;;13.60;99.90;;;;;;5074557;28;20043;-63
2022/12/31 14:05:37;;;;;;;8.32;6.05;;;13.50;99.90;;;;;;5075878;28;20040;-63
2022/12/31 14:08:04;;;;;;;7.30;5.03;;;13.70;99.90;;;;;;5085064;28;20056;-63
2022/12/31 14:11:05;;;;;;;5.25;3.08;;;13.70;99.90;;;;;;5085485;28;20044;-64
2022/12/31 14:13:46;;;;;;;5.72;2.20;;;13.70;99.90;;;;;;5096516;28;20047;-62
2022/12/31 14:16:29;;;;;;;7.43;3.00;;;13.70;99.90;;;;;;5090749;28;20058;-63
2022/12/31 14:19:05;;;;;;;4.30;2.15;;;13.80;99.90;;;;;;5091173;28;20075;-63
2022/12/31 14:22:05;;;;;;;6.40;2.75;;;14.00;99.90;;;;;;5096002;28;20483;-63
2022/12/31 14:24:45;;;;;;;6.30;2.83;;;13.90;99.90;;;;;;5064560;28;20062;-63
2022/12/31 14:27:31;;;;;;;6.28;3.00;;;14.10;99.90;;;;;;5086612;28;20444;-61
2022/12/31 14:30:01;;;;;;;7.90;3.30;;;14.10;99.90;;;;;;5078728;28;20036;-63
2022/12/31 14:33:02;;;;;;;7.68;3.60;;;13.90;99.90;;;;;;5067526;28;20063;-63
2022/12/31 14:35:33;;;;;;;8.50;4.30;;;14.10;99.90;;;;;;5083916;28;20434;-64
2022/12/31 14:38:33;;;;;;;8.00;4.43;;;14.10;99.90;;;;;;5082533;28;20048;-63
2022/12/31 14:41:10;;;;;;;8.00;4.38;;;14.00;99.90;;;;;;5080541;28;20453;-63
2022/12/31 14:43:51;;;;;;;8.48;3.95;;;14.10;99.90;;;;;;5083687;28;20348;-64
2022/12/31 14:46:24;;;;;;;7.22;3.92;;;14.20;99.90;;;;;;5079562;28;20048;-64
2022/12/31 14:49:10;;;;;;;6.53;4.00;;;14.10;99.90;;;;;;5083556;28;20044;-61
2022/12/31 14:51:36;;;;;;;9.77;4.22;;;14.20;99.90;;;;;;5079648;28;20460;-62
2022/12/31 14:54:02;;;;;;;6.05;3.80;;;14.20;99.90;;;;;;5081887;28;20040;-63
2022/12/31 14:56:41;;;;;;;7.38;3.35;;;14.30;99.90;;;;;;5082651;28;20036;-63
2022/12/31 14:59:30;;;;;;;7.28;3.17;;;14.30;99.90;;;;;;5084061;28;20056;-62
2022/12/31 15:01:57;;;;;;;8.15;3.83;;;14.30;99.90;;;;;;5083604;28;20048;-63
2022/12/31 15:04:42;;;;;;;8.43;4.55;;;14.30;99.90;;;;;;5080973;28;20055;-62
2022/12/31 15:07:37;;;;;;;7.18;4.28;;;14.20;99.90;;;;;;5086689;28;20032;-61
2022/12/31 15:10:19;;;;;;;7.68;3.83;;;14.20;99.90;;;;;;5082550;28;20047;-64
2022/12/31 15:13:12;;;;;;;7.07;2.97;;;14.20;99.90;;;;;;5084018;28;20406;-61
2022/12/31 15:16:07;;;;;;;7.32;3.20;;;14.20;99.90;;;;;;5082488;28;20587;-66
2022/12/31 15:19:01;;;;;;;6.25;3.05;;;14.20;99.90;;;;;;5081719;28;20355;-63
2022/12/31 15:21:27;;;;;;;6.50;2.90;;;14.30;99.90;;;;;;5086290;28;20072;-63
2022/12/31 15:23:59;;;;;;;6.45;3.30;;;14.30;99.90;;;;;;5086564;28;20349;-63
2022/12/31 15:26:30;;;;;;;8.10;3.50;;;14.30;99.90;;;;;;5089163;28;20054;-66
2022/12/31 15:29:18;;;;;;;6.97;3.40;;;14.20;99.90;;;;;;5074629;28;20451;-65
2022/12/31 15:31:45;;;;;;;7.00;3.33;;;14.00;99.90;;;;;;5085415;28;20493;-60
2022/12/31 15:34:23;;;;;;;6.93;2.92;;;14.00;99.90;;;;;;5089158;28;20051;-63
2022/12/31 15:36:58;;;;;;;8.48;3.20;;;14.00;99.90;;;;;;5101645;28;20051;-61
2022/12/31 15:39:29;;;;;;;6.75;4.32;;;14.20;99.90;;;;;;5091301;28;20463;-64
2022/12/31 15:41:56;;;;;;;7.32;4.38;;;14.20;99.90;;;;;;5090128;28;20040;-62
2022/12/31 15:44:34;;;;;;;9.25;3.80;;;14.00;99.90;;;;;;5099347;28;20123;-63
2022/12/31 15:47:16;;;;;;;7.22;3.67;;;14.10;99.90;;;;;;5091017;28;20405;-63
2022/12/31 15:49:45;;;;;;;7.57;3.70;;;14.10;99.90;;;;;;5087660;28;20414;-61
2022/12/31 15:52:24;;;;;;;6.85;2.80;;;14.20;99.90;;;;;;5096426;28;20032;-63